Time;durP1;ratioP1;P1;durP2;ratioP2;P2;SDS_P1;SDS_P2;PMS_P1;PMS_P2;Temp;Humidity;BMP_temperature;BMP_pressure;BME280_temperature;BME280_humidity;BME280_pressure;Samples;Min_cycle;Max_cycle;Signal;HPM_P1;HPM_P2
2022/11/24 00:01:30;;;;;;;0.50;0.50;;;0.80;99.90;;;;;;5116120;28;20529;-77
2022/11/24 00:04:02;;;;;;;0.70;0.70;;;0.90;99.90;;;;;;5097882;28;20191;-77
2022/11/24 00:06:29;;;;;;;0.70;0.70;;;0.80;99.90;;;;;;5115927;28;20203;-77
2022/11/24 00:08:55;;;;;;;0.70;0.70;;;0.90;99.90;;;;;;5116069;28;20230;-77
2022/11/24 00:11:24;;;;;;;0.73;0.73;;;0.80;99.90;;;;;;5097537;28;20557;-77
2022/11/24 00:13:50;;;;;;;0.60;0.60;;;0.80;99.90;;;;;;5097592;28;20222;-77
2022/11/24 00:16:19;;;;;;;0.60;0.60;;;0.80;99.90;;;;;;5115908;28;20674;-77
2022/11/24 00:18:47;;;;;;;0.80;0.80;;;0.90;99.90;;;;;;5115983;28;20538;-77
2022/11/24 00:21:16;;;;;;;0.80;0.80;;;0.90;99.90;;;;;;5115914;28;20202;-78
2022/11/24 00:23:43;;;;;;;0.60;0.60;;;0.90;99.90;;;;;;5115689;28;20715;-78
2022/11/24 00:26:10;;;;;;;0.70;0.70;;;0.90;99.90;;;;;;5097391;28;20238;-78
2022/11/24 00:28:37;;;;;;;0.68;0.68;;;1.00;99.90;;;;;;5096126;28;20662;-77
2022/11/24 00:31:04;;;;;;;0.70;0.70;;;0.90;99.90;;;;;;5084153;28;20200;-77
2022/11/24 00:33:30;;;;;;;0.60;0.60;;;1.00;99.90;;;;;;5095075;28;20271;-77
2022/11/24 00:36:00;;;;;;;0.50;0.50;;;0.90;99.90;;;;;;5095201;28;20272;-77
2022/11/24 00:38:26;;;;;;;0.60;0.60;;;0.90;99.90;;;;;;5106722;28;20199;-76
2022/11/24 00:40:52;;;;;;;0.85;0.85;;;0.90;99.90;;;;;;5115496;28;20196;-76
2022/11/24 00:43:18;;;;;;;0.52;0.52;;;0.90;99.90;;;;;;5097206;28;20199;-76
2022/11/24 00:45:44;;;;;;;0.60;0.60;;;0.90;99.90;;;;;;5115599;28;20554;-75
2022/11/24 00:48:09;;;;;;;0.70;0.70;;;0.90;99.90;;;;;;5115408;28;20266;-75
2022/11/24 00:50:35;;;;;;;0.70;0.70;;;0.90;99.90;;;;;;5115204;28;20187;-75
2022/11/24 00:53:01;;;;;;;0.55;0.55;;;0.90;99.90;;;;;;5115300;28;20195;-75
2022/11/24 00:55:27;;;;;;;0.65;0.65;;;0.90;99.90;;;;;;5115115;28;20195;-75
2022/11/24 00:57:53;;;;;;;0.60;0.60;;;0.90;99.90;;;;;;5115136;28;20279;-76
2022/11/24 01:00:18;;;;;;;0.65;0.65;;;0.80;99.90;;;;;;5096720;28;20196;-76
2022/11/24 01:02:44;;;;;;;0.60;0.60;;;0.90;99.90;;;;;;5114863;28;20316;-77
2022/11/24 01:05:10;;;;;;;0.60;0.60;;;0.90;99.90;;;;;;5096753;28;20192;-77
2022/11/24 01:07:35;;;;;;;0.50;0.50;;;0.90;99.90;;;;;;5096536;28;20549;-75
2022/11/24 01:10:01;;;;;;;0.60;0.60;;;0.90;99.90;;;;;;5114658;28;20294;-74
2022/11/24 01:12:27;;;;;;;0.60;0.60;;;0.90;99.90;;;;;;5114728;28;20194;-76
2022/11/24 01:14:53;;;;;;;0.70;0.70;;;0.90;99.90;;;;;;5096509;28;20200;-76
2022/11/24 01:17:19;;;;;;;0.60;0.60;;;0.90;99.90;;;;;;5114676;28;20286;-75
2022/11/24 01:19:46;;;;;;;0.55;0.55;;;0.90;99.90;;;;;;5096321;28;20237;-75
2022/11/24 01:22:12;;;;;;;0.55;0.55;;;0.90;99.90;;;;;;5096325;28;20191;-75
2022/11/24 01:24:38;;;;;;;0.68;0.68;;;0.90;99.90;;;;;;5114506;28;20233;-75
2022/11/24 01:27:04;;;;;;;0.60;0.60;;;0.90;99.90;;;;;;5092696;28;20248;-75
2022/11/24 01:29:29;;;;;;;0.60;0.60;;;0.90;99.90;;;;;;5093845;28;20219;-76
2022/11/24 01:31:55;;;;;;;0.80;0.80;;;0.90;99.90;;;;;;5094079;28;20216;-76
2022/11/24 01:34:21;;;;;;;0.60;0.60;;;0.90;99.90;;;;;;5103068;28;20188;-75
2022/11/24 01:36:46;;;;;;;0.52;0.52;;;0.90;99.90;;;;;;5114294;28;20191;-76
2022/11/24 01:39:12;;;;;;;0.70;0.70;;;0.90;99.90;;;;;;5092315;28;20228;-76
2022/11/24 01:41:38;;;;;;;0.70;0.70;;;0.90;99.90;;;;;;5075508;28;20207;-75
2022/11/24 01:44:22;;;;;;;0.60;0.60;;;0.90;99.90;;;;;;5093910;28;20203;-75
2022/11/24 01:46:51;;;;;;;0.70;0.70;;;0.90;99.90;;;;;;5075387;28;20215;-75
2022/11/24 01:49:23;;;;;;;0.70;0.70;;;0.80;99.90;;;;;;5093916;28;20188;-75
2022/11/24 01:52:24;;;;;;;0.60;0.60;;;0.90;99.90;;;;;;5093743;28;20188;-75
2022/11/24 01:54:57;;;;;;;0.70;0.70;;;0.90;99.90;;;;;;5034564;28;20240;-75
2022/11/24 01:57:27;;;;;;;0.70;0.70;;;0.90;99.90;;;;;;5051063;28;20213;-75
2022/11/24 02:00:01;;;;;;;0.60;0.60;;;0.90;99.90;;;;;;5051322;28;20288;-75
2022/11/24 02:02:28;;;;;;;0.70;0.70;;;0.90;99.90;;;;;;5051312;28;20260;-72
2022/11/24 02:05:01;;;;;;;0.73;0.73;;;0.90;99.90;;;;;;5051079;28;20205;-73
2022/11/24 02:07:27;;;;;;;0.60;0.60;;;0.90;99.90;;;;;;5020029;28;20220;-73
2022/11/24 02:09:59;;;;;;;0.60;0.60;;;1.00;99.90;;;;;;5015409;28;20302;-73
2022/11/24 02:12:26;;;;;;;0.50;0.50;;;0.90;99.90;;;;;;5011202;28;20249;-73
2022/11/24 02:14:53;;;;;;;0.68;0.68;;;0.80;99.90;;;;;;5011308;28;20215;-73
2022/11/24 02:17:20;;;;;;;0.80;0.80;;;0.80;99.90;;;;;;5011116;28;20286;-73
2022/11/24 02:19:58;;;;;;;0.65;0.65;;;0.80;99.90;;;;;;5011252;28;20660;-73
2022/11/24 02:22:57;;;;;;;0.50;0.50;;;0.80;99.90;;;;;;5010925;28;20214;-73
2022/11/24 02:25:47;;;;;;;0.60;0.60;;;0.80;99.90;;;;;;5010692;28;20211;-73
2022/11/24 02:28:17;;;;;;;0.60;0.60;;;0.80;99.90;;;;;;5031881;28;20667;-73
2022/11/24 02:30:43;;;;;;;0.60;0.60;;;0.80;99.90;;;;;;5074458;28;20196;-74
2022/11/24 02:33:10;;;;;;;0.50;0.50;;;0.80;99.90;;;;;;5093060;28;20196;-73
2022/11/24 02:35:36;;;;;;;0.70;0.70;;;0.90;99.90;;;;;;5092871;28;20253;-74
2022/11/24 02:38:02;;;;;;;0.70;0.70;;;0.90;99.90;;;;;;5083830;28;20201;-73
2022/11/24 02:40:29;;;;;;;0.57;0.57;;;0.90;99.90;;;;;;5054596;28;20192;-73
2022/11/24 02:43:09;;;;;;;0.60;0.60;;;0.90;99.90;;;;;;5071374;28;20189;-73
2022/11/24 02:45:35;;;;;;;0.60;0.60;;;0.90;99.90;;;;;;5072455;28;20208;-73
2022/11/24 02:48:01;;;;;;;0.63;0.63;;;0.90;99.90;;;;;;5072732;28;20561;-73
2022/11/24 02:50:26;;;;;;;1.00;1.00;;;1.00;99.90;;;;;;5074412;28;20198;-72
2022/11/24 02:52:52;;;;;;;0.70;0.70;;;1.00;99.90;;;;;;5092121;28;20188;-72
2022/11/24 02:55:19;;;;;;;0.70;0.70;;;1.00;99.90;;;;;;5092751;28;20272;-72
2022/11/24 02:57:45;;;;;;;0.50;0.50;;;0.90;99.90;;;;;;5092671;28;20662;-72
2022/11/24 03:00:11;;;;;;;0.60;0.60;;;1.00;99.90;;;;;;5092698;28;20709;-72
2022/11/24 03:02:37;;;;;;;0.60;0.60;;;0.90;99.90;;;;;;5091725;28;20200;-73
2022/11/24 03:05:03;;;;;;;0.60;0.60;;;0.90;99.90;;;;;;5074587;28;20203;-71
2022/11/24 03:07:28;;;;;;;0.50;0.50;;;0.90;99.90;;;;;;5074222;28;20749;-72
2022/11/24 03:09:54;;;;;;;0.60;0.60;;;0.90;99.90;;;;;;5087082;28;20314;-73
2022/11/24 03:12:20;;;;;;;0.60;0.60;;;1.00;99.90;;;;;;5092500;28;20659;-73
2022/11/24 03:14:45;;;;;;;0.60;0.60;;;1.00;99.90;;;;;;5092574;28;20195;-73
2022/11/24 03:17:11;;;;;;;1.17;1.08;;;1.00;99.90;;;;;;5092540;28;20188;-73
2022/11/24 03:19:37;;;;;;;0.50;0.50;;;1.00;99.90;;;;;;5092300;28;20208;-73
2022/11/24 03:22:03;;;;;;;0.60;0.60;;;1.00;99.90;;;;;;5092670;28;20196;-74
2022/11/24 03:24:28;;;;;;;0.57;0.57;;;1.00;99.90;;;;;;5092352;28;20227;-72
2022/11/24 03:26:54;;;;;;;0.70;0.70;;;1.00;99.90;;;;;;5092044;28;20226;-73
2022/11/24 03:29:21;;;;;;;0.80;0.80;;;1.10;99.90;;;;;;5091018;28;20215;-73
2022/11/24 03:31:47;;;;;;;0.60;0.60;;;1.10;99.90;;;;;;5092446;28;20253;-73
2022/11/24 03:34:12;;;;;;;0.90;0.90;;;1.10;99.90;;;;;;5092477;28;20249;-73
2022/11/24 03:36:38;;;;;;;0.95;0.95;;;1.00;99.90;;;;;;5090955;28;20204;-72
2022/11/24 03:39:04;;;;;;;0.60;0.60;;;1.10;99.90;;;;;;5074480;28;20318;-72
2022/11/24 03:41:29;;;;;;;0.68;0.68;;;1.10;99.90;;;;;;5070748;28;20200;-72
2022/11/24 03:43:55;;;;;;;0.57;0.57;;;1.10;99.90;;;;;;5072064;28;20197;-71
2022/11/24 03:46:21;;;;;;;0.73;0.73;;;1.10;99.90;;;;;;5070497;28;20215;-72
2022/11/24 03:48:46;;;;;;;0.60;0.60;;;1.10;99.90;;;;;;5070785;28;20551;-72
2022/11/24 03:51:12;;;;;;;0.52;0.52;;;1.10;99.90;;;;;;5072023;28;20193;-72
2022/11/24 03:53:38;;;;;;;0.60;0.60;;;1.00;99.90;;;;;;5071888;28;20262;-72
2022/11/24 03:56:04;;;;;;;0.60;0.60;;;1.00;99.90;;;;;;5070808;28;20238;-72
2022/11/24 03:58:30;;;;;;;0.60;0.60;;;1.00;99.90;;;;;;5072362;28;20288;-72
2022/11/24 04:00:56;;;;;;;0.63;0.63;;;1.00;99.90;;;;;;5091843;28;20196;-72
2022/11/24 04:03:22;;;;;;;0.60;0.60;;;1.10;99.90;;;;;;5092662;28;20666;-72
2022/11/24 04:05:48;;;;;;;0.60;0.60;;;1.10;99.90;;;;;;5094494;28;20702;-72
2022/11/24 04:08:14;;;;;;;0.70;0.70;;;1.20;99.90;;;;;;5097780;28;20192;-72
2022/11/24 04:10:40;;;;;;;0.60;0.60;;;1.10;99.90;;;;;;5115854;28;20336;-72
2022/11/24 04:13:12;;;;;;;0.50;0.50;;;1.10;99.90;;;;;;5116004;28;20213;-73
2022/11/24 04:15:39;;;;;;;0.63;0.63;;;1.10;99.90;;;;;;5087797;28;20196;-73
2022/11/24 04:18:05;;;;;;;0.52;0.52;;;1.10;99.90;;;;;;5111114;28;20198;-72
2022/11/24 04:20:31;;;;;;;0.60;0.60;;;1.10;99.90;;;;;;5116080;28;20715;-72
2022/11/24 04:22:57;;;;;;;0.60;0.60;;;1.10;99.90;;;;;;5116010;28;20215;-71
2022/11/24 04:25:22;;;;;;;0.60;0.60;;;1.00;99.90;;;;;;5115997;28;20237;-72
2022/11/24 04:27:53;;;;;;;0.63;0.63;;;1.00;99.90;;;;;;5097885;28;20211;-71
2022/11/24 04:30:19;;;;;;;0.75;0.75;;;1.10;99.90;;;;;;5116003;28;20651;-72
2022/11/24 04:32:46;;;;;;;0.60;0.60;;;1.10;99.90;;;;;;5116004;28;20188;-72
2022/11/24 04:35:12;;;;;;;0.70;0.70;;;1.10;99.90;;;;;;5097706;28;20207;-71
2022/11/24 04:37:37;;;;;;;0.68;0.68;;;1.00;99.90;;;;;;5109788;28;20203;-71
2022/11/24 04:40:04;;;;;;;0.60;0.60;;;1.00;99.90;;;;;;5095539;28;20196;-71
2022/11/24 04:42:30;;;;;;;0.60;0.60;;;1.10;99.90;;;;;;5094878;28;20200;-71
2022/11/24 04:44:56;;;;;;;0.60;0.60;;;1.10;99.90;;;;;;5094979;28;20195;-71
2022/11/24 04:47:24;;;;;;;0.60;0.60;;;1.10;99.90;;;;;;5076630;28;20295;-71
2022/11/24 04:49:50;;;;;;;0.70;0.70;;;1.10;99.90;;;;;;5094973;28;20663;-72
2022/11/24 04:52:18;;;;;;;0.60;0.60;;;1.10;99.90;;;;;;5076765;28;20212;-72
2022/11/24 04:54:44;;;;;;;0.50;0.50;;;1.10;99.90;;;;;;5096504;28;20642;-71
2022/11/24 04:57:16;;;;;;;0.40;0.40;;;1.10;99.90;;;;;;5097046;28;20249;-71
2022/11/24 04:59:42;;;;;;;0.50;0.50;;;1.10;99.90;;;;;;5114996;28;20251;-71
2022/11/24 05:02:08;;;;;;;0.50;0.50;;;1.10;99.90;;;;;;5115108;28;20718;-72
2022/11/24 05:04:34;;;;;;;0.60;0.60;;;1.10;99.90;;;;;;5114931;28;20241;-71
2022/11/24 05:06:59;;;;;;;0.60;0.60;;;1.10;99.90;;;;;;5114927;28;20239;-71
2022/11/24 05:09:25;;;;;;;0.60;0.60;;;1.10;99.90;;;;;;5096173;28;20312;-72
2022/11/24 05:11:51;;;;;;;0.50;0.50;;;1.10;99.90;;;;;;5114766;28;20201;-72
2022/11/24 05:14:16;;;;;;;0.60;0.60;;;1.10;99.90;;;;;;5114268;28;20188;-72
2022/11/24 05:16:42;;;;;;;0.57;0.57;;;1.10;99.90;;;;;;5114610;28;20215;-72
2022/11/24 05:19:08;;;;;;;0.60;0.60;;;1.20;99.90;;;;;;5114487;28;20253;-73
2022/11/24 05:21:34;;;;;;;0.57;0.57;;;1.20;99.90;;;;;;5114532;28;20204;-71
2022/11/24 05:23:59;;;;;;;0.65;0.65;;;1.10;99.90;;;;;;5096399;28;20256;-71
2022/11/24 05:26:26;;;;;;;0.60;0.60;;;1.10;99.90;;;;;;5096029;28;20212;-71
2022/11/24 05:28:52;;;;;;;0.60;0.60;;;1.10;99.90;;;;;;5096274;28;20248;-70
2022/11/24 05:31:17;;;;;;;0.60;0.60;;;1.20;99.90;;;;;;5114372;28;20188;-72
2022/11/24 05:33:44;;;;;;;0.50;0.50;;;1.20;99.90;;;;;;5096305;28;20223;-72
2022/11/24 05:36:51;;;;;;;0.52;0.52;;;1.10;99.90;;;;;;5096156;28;20202;-71
2022/11/24 05:38:59;;;;;;;0.57;0.57;;;1.20;99.90;;;;;;5096844;28;20235;-71
2022/11/24 05:41:25;;;;;;;0.60;0.60;;;1.20;99.90;;;;;;5093780;28;20200;-71
2022/11/24 05:43:51;;;;;;;0.65;0.65;;;1.10;99.90;;;;;;5093876;28;20188;-71
2022/11/24 05:46:16;;;;;;;0.70;0.70;;;1.10;99.90;;;;;;5075672;28;20620;-71
2022/11/24 05:48:42;;;;;;;0.55;0.55;;;1.10;99.90;;;;;;5093703;28;20196;-70
2022/11/24 05:51:08;;;;;;;0.50;0.50;;;1.10;99.90;;;;;;5096715;28;20187;-71
2022/11/24 05:53:33;;;;;;;0.65;0.65;;;1.10;99.90;;;;;;5113871;28;20195;-71
2022/11/24 05:56:03;;;;;;;0.73;0.73;;;1.20;99.90;;;;;;5114091;28;20194;-71
2022/11/24 05:58:28;;;;;;;0.50;0.50;;;1.20;99.90;;;;;;5113748;28;20256;-71
2022/11/24 06:00:54;;;;;;;0.55;0.55;;;1.20;99.90;;;;;;5095622;28;20611;-72
2022/11/24 06:03:20;;;;;;;0.60;0.60;;;1.10;99.90;;;;;;5113635;28;20217;-72
2022/11/24 06:05:46;;;;;;;0.60;0.60;;;1.20;99.90;;;;;;5113854;28;20195;-70
2022/11/24 06:08:12;;;;;;;1.50;0.98;;;1.10;99.90;;;;;;5113587;28;20195;-71
2022/11/24 06:10:37;;;;;;;0.60;0.60;;;1.20;99.90;;;;;;5095316;28;20214;-71
2022/11/24 06:13:05;;;;;;;0.63;0.63;;;1.20;99.90;;;;;;5095490;28;20188;-71
2022/11/24 06:15:31;;;;;;;0.70;0.70;;;1.20;99.90;;;;;;5094756;28;20198;-70
2022/11/24 06:17:57;;;;;;;4.65;1.70;;;1.10;99.90;;;;;;5113657;28;20278;-71
2022/11/24 06:20:24;;;;;;;0.60;0.60;;;1.10;99.90;;;;;;5095309;28;20223;-71
2022/11/24 06:22:49;;;;;;;0.52;0.52;;;1.10;99.90;;;;;;5113547;28;20179;-71
2022/11/24 06:25:15;;;;;;;0.50;0.50;;;1.20;99.90;;;;;;5113552;28;20248;-72
2022/11/24 06:27:41;;;;;;;0.82;0.82;;;1.20;99.90;;;;;;5112385;28;20203;-71
2022/11/24 06:30:07;;;;;;;0.55;0.55;;;1.10;99.90;;;;;;5095191;28;20226;-71
2022/11/24 06:32:33;;;;;;;0.70;0.70;;;1.10;99.90;;;;;;5095003;28;20730;-71
2022/11/24 06:34:59;;;;;;;0.60;0.60;;;1.20;99.90;;;;;;5113404;28;20350;-71
2022/11/24 06:37:25;;;;;;;0.60;0.60;;;1.20;99.90;;;;;;5109195;28;20198;-71
2022/11/24 06:39:50;;;;;;;0.60;0.60;;;1.20;99.90;;;;;;5074896;28;20222;-71
2022/11/24 06:42:17;;;;;;;0.60;0.60;;;1.10;99.90;;;;;;5093033;28;20191;-70
2022/11/24 06:44:46;;;;;;;0.70;0.70;;;1.10;99.90;;;;;;5074565;28;20658;-70
2022/11/24 06:47:12;;;;;;;0.60;0.60;;;1.10;99.90;;;;;;5094252;28;20206;-70
2022/11/24 06:49:38;;;;;;;0.50;0.50;;;1.20;99.90;;;;;;5113086;28;20226;-71
2022/11/24 06:52:03;;;;;;;0.70;0.70;;;1.20;99.90;;;;;;5113254;28;20606;-68
2022/11/24 06:54:30;;;;;;;0.50;0.50;;;1.10;99.90;;;;;;5113101;28;20266;-69
2022/11/24 06:56:59;;;;;;;0.70;0.70;;;1.10;99.90;;;;;;5113094;28;20677;-69
2022/11/24 06:59:25;;;;;;;0.63;0.63;;;1.10;99.90;;;;;;5112968;28;20199;-69
2022/11/24 07:01:51;;;;;;;0.55;0.55;;;1.20;99.90;;;;;;5113154;28;20209;-70
2022/11/24 07:04:17;;;;;;;0.60;0.60;;;1.20;99.90;;;;;;5094615;28;20203;-70
2022/11/24 07:06:43;;;;;;;0.60;0.60;;;1.10;99.90;;;;;;5112826;28;20685;-69
2022/11/24 07:09:11;;;;;;;0.60;0.60;;;1.20;99.90;;;;;;5103164;28;20224;-69
2022/11/24 07:11:37;;;;;;;0.70;0.70;;;1.20;99.90;;;;;;5092200;28;20701;-70
2022/11/24 07:14:02;;;;;;;0.70;0.70;;;1.10;99.90;;;;;;5074463;28;20189;-70
2022/11/24 07:16:28;;;;;;;0.60;0.60;;;1.10;99.90;;;;;;5092478;28;20188;-70
2022/11/24 07:18:54;;;;;;;0.60;0.60;;;1.10;99.90;;;;;;5092391;28;20713;-70
2022/11/24 07:21:21;;;;;;;0.50;0.50;;;1.10;99.90;;;;;;5092483;28;20662;-70
2022/11/24 07:23:52;;;;;;;0.70;0.70;;;1.20;99.90;;;;;;5092598;28;20196;-70
2022/11/24 07:26:18;;;;;;;0.70;0.70;;;1.20;99.90;;;;;;5092453;28;20257;-70
2022/11/24 07:28:45;;;;;;;0.70;0.70;;;1.20;99.90;;;;;;5074362;28;20192;-69
2022/11/24 07:31:17;;;;;;;0.60;0.60;;;1.20;99.90;;;;;;5092340;28;20294;-70
2022/11/24 07:33:47;;;;;;;0.60;0.60;;;1.20;99.90;;;;;;5092405;28;20184;-70
2022/11/24 07:36:13;;;;;;;0.68;0.68;;;1.20;99.90;;;;;;5092257;28;20716;-70
2022/11/24 07:38:38;;;;;;;0.52;0.52;;;1.20;99.90;;;;;;5072349;28;20212;-70
2022/11/24 07:41:07;;;;;;;0.70;0.70;;;1.20;99.90;;;;;;5075931;28;20216;-70
2022/11/24 07:43:34;;;;;;;0.60;0.60;;;1.20;99.90;;;;;;5057659;28;20334;-69
2022/11/24 07:46:00;;;;;;;0.65;0.65;;;1.30;99.90;;;;;;5075924;28;20547;-70
2022/11/24 07:48:26;;;;;;;0.70;0.70;;;1.20;99.90;;;;;;5075665;28;20211;-70
2022/11/24 07:50:52;;;;;;;0.60;0.60;;;1.30;99.90;;;;;;5075776;28;20228;-70
2022/11/24 07:53:18;;;;;;;0.60;0.60;;;1.30;99.90;;;;;;5057789;28;20288;-70
2022/11/24 07:55:51;;;;;;;0.90;0.90;;;1.30;99.90;;;;;;5075215;28;20195;-70
2022/11/24 07:58:16;;;;;;;0.50;0.50;;;1.30;99.90;;;;;;5057525;28;20188;-70
2022/11/24 08:00:42;;;;;;;0.70;0.70;;;1.30;99.90;;;;;;5074154;28;20226;-70
2022/11/24 08:03:08;;;;;;;0.60;0.60;;;1.30;99.90;;;;;;5097882;28;20594;-70
2022/11/24 08:05:33;;;;;;;0.70;0.70;;;1.30;99.90;;;;;;5116056;28;20180;-70
2022/11/24 08:07:59;;;;;;;0.63;0.63;;;1.30;99.90;;;;;;5106396;28;20204;-70
2022/11/24 08:10:25;;;;;;;0.90;0.90;;;1.30;99.90;;;;;;5095335;28;20258;-70
2022/11/24 08:12:50;;;;;;;0.70;0.70;;;1.30;99.90;;;;;;5095661;28;20595;-70
2022/11/24 08:15:16;;;;;;;0.77;0.77;;;1.30;99.90;;;;;;5095706;28;20582;-71
2022/11/24 08:17:42;;;;;;;0.77;0.77;;;1.40;99.90;;;;;;5095418;28;20192;-70
2022/11/24 08:20:08;;;;;;;0.63;0.63;;;1.30;99.90;;;;;;5077440;28;20245;-69
2022/11/24 08:22:34;;;;;;;0.70;0.70;;;1.40;99.90;;;;;;5095389;28;20670;-69
2022/11/24 08:24:59;;;;;;;0.60;0.60;;;1.40;99.90;;;;;;5095415;28;20203;-69
2022/11/24 08:27:25;;;;;;;0.70;0.70;;;1.40;99.90;;;;;;5095255;28;20302;-70
2022/11/24 08:29:51;;;;;;;0.50;0.50;;;1.40;99.90;;;;;;5095332;28;20192;-70
2022/11/24 08:32:16;;;;;;;0.75;0.75;;;1.40;99.90;;;;;;5077317;28;20216;-70
2022/11/24 08:34:42;;;;;;;0.60;0.60;;;1.40;99.90;;;;;;5095182;28;20188;-70
2022/11/24 08:37:07;;;;;;;0.70;0.70;;;1.40;99.90;;;;;;5075461;28;20211;-70
2022/11/24 08:39:33;;;;;;;0.55;0.55;;;1.40;99.90;;;;;;5056869;28;20201;-70
2022/11/24 08:41:59;;;;;;;0.65;0.65;;;1.40;99.90;;;;;;5077006;28;20200;-70
2022/11/24 08:44:27;;;;;;;0.70;0.70;;;1.40;99.90;;;;;;5076802;28;20285;-70
2022/11/24 08:46:53;;;;;;;0.50;0.50;;;1.50;99.90;;;;;;5094970;28;20219;-69
2022/11/24 08:49:20;;;;;;;0.70;0.70;;;1.50;99.90;;;;;;5093949;28;20666;-70
2022/11/24 08:51:47;;;;;;;0.63;0.63;;;1.50;99.90;;;;;;5094953;28;20198;-70
2022/11/24 08:54:14;;;;;;;0.60;0.60;;;1.60;99.90;;;;;;5095054;28;20245;-70
2022/11/24 08:56:41;;;;;;;0.60;0.60;;;1.50;99.90;;;;;;5094534;28;20206;-71
2022/11/24 08:59:07;;;;;;;0.60;0.60;;;1.60;99.90;;;;;;5093534;28;20704;-71
2022/11/24 09:01:33;;;;;;;0.80;0.80;;;1.70;99.90;;;;;;5093380;28;20199;-70
2022/11/24 09:03:59;;;;;;;3.67;0.85;;;1.70;99.90;;;;;;5094207;28;20192;-70
2022/11/24 09:06:29;;;;;;;0.60;0.60;;;1.80;99.90;;;;;;5094398;28;20224;-70
2022/11/24 09:08:56;;;;;;;0.50;0.50;;;1.80;99.90;;;;;;5102173;28;20698;-70
2022/11/24 09:11:24;;;;;;;0.60;0.60;;;1.80;99.90;;;;;;5114696;28;20707;-70
2022/11/24 09:13:49;;;;;;;0.60;0.60;;;1.80;99.90;;;;;;5114983;28;20183;-70
2022/11/24 09:16:18;;;;;;;0.60;0.60;;;1.90;99.90;;;;;;5114912;28;20532;-70
2022/11/24 09:18:43;;;;;;;0.80;0.80;;;1.80;99.90;;;;;;5114725;28;20192;-70
2022/11/24 09:21:15;;;;;;;0.65;0.65;;;1.80;99.90;;;;;;5114718;28;20198;-70
2022/11/24 09:23:41;;;;;;;0.90;0.90;;;1.80;99.90;;;;;;5096277;28;20559;-70
2022/11/24 09:26:09;;;;;;;0.80;0.80;;;1.80;99.90;;;;;;5114608;28;20195;-70
2022/11/24 09:28:35;;;;;;;0.60;0.60;;;1.80;99.90;;;;;;5096250;28;20559;-70
2022/11/24 09:31:06;;;;;;;0.60;0.60;;;1.70;99.90;;;;;;5114402;28;20192;-70
2022/11/24 09:33:33;;;;;;;0.70;0.70;;;1.80;99.90;;;;;;5114440;28;20270;-70
2022/11/24 09:35:59;;;;;;;0.68;0.68;;;1.80;99.90;;;;;;5114307;28;20202;-70
2022/11/24 09:38:24;;;;;;;0.60;0.60;;;1.80;99.90;;;;;;5114015;28;20644;-70
2022/11/24 09:40:52;;;;;;;0.57;0.57;;;1.70;99.90;;;;;;5114319;28;20230;-70
2022/11/24 09:43:35;;;;;;;0.73;0.73;;;1.70;99.90;;;;;;5096061;28;20681;-70
2022/11/24 09:46:14;;;;;;;0.60;0.60;;;1.70;99.90;;;;;;5114334;28;20298;-70
2022/11/24 09:48:45;;;;;;;0.70;0.70;;;1.70;99.90;;;;;;5095764;28;20723;-70
2022/11/24 09:51:13;;;;;;;0.60;0.60;;;1.60;99.90;;;;;;5114088;28;20199;-70
2022/11/24 09:53:38;;;;;;;0.70;0.70;;;1.60;99.90;;;;;;5113933;28;20662;-70
2022/11/24 09:56:22;;;;;;;0.52;0.52;;;1.70;99.90;;;;;;5113920;28;20207;-70
2022/11/24 09:58:58;;;;;;;0.50;0.50;;;1.70;99.90;;;;;;5095608;28;20252;-70
2022/11/24 10:01:27;;;;;;;0.57;0.57;;;1.70;99.90;;;;;;5113246;28;20628;-69
2022/11/24 10:03:54;;;;;;;0.60;0.60;;;1.70;99.90;;;;;;5095735;28;20201;-70
2022/11/24 10:06:22;;;;;;;0.50;0.50;;;1.70;99.90;;;;;;5113578;28;20203;-71
2022/11/24 10:09:25;;;;;;;0.68;0.68;;;1.60;99.90;;;;;;5113699;28;20725;-70
2022/11/24 10:12:18;;;;;;;0.60;0.60;;;1.70;99.90;;;;;;5113759;28;20664;-70
2022/11/24 10:15:01;;;;;;;0.63;0.63;;;1.70;99.90;;;;;;5113759;28;20654;-70
2022/11/24 10:17:44;;;;;;;0.82;0.82;;;1.70;99.90;;;;;;5095296;28;20199;-70
2022/11/24 10:20:27;;;;;;;0.70;0.70;;;1.70;99.90;;;;;;5113697;28;20191;-70
2022/11/24 10:23:08;;;;;;;0.60;0.60;;;1.70;99.90;;;;;;5113579;28;20191;-70
2022/11/24 10:26:02;;;;;;;0.60;0.60;;;1.70;99.90;;;;;;5095167;28;20212;-70
2022/11/24 10:28:46;;;;;;;0.57;0.57;;;1.70;99.90;;;;;;5112625;28;20208;-70
2022/11/24 10:31:17;;;;;;;0.52;0.52;;;1.70;99.90;;;;;;5113289;28;20183;-70
2022/11/24 10:33:44;;;;;;;0.95;0.95;;;1.70;99.90;;;;;;5094956;28;20187;-70
2022/11/24 10:36:18;;;;;;;0.65;0.65;;;1.80;99.90;;;;;;5095233;28;20238;-70
2022/11/24 10:38:55;;;;;;;0.50;0.50;;;1.70;99.90;;;;;;5113124;28;20226;-70
2022/11/24 10:41:36;;;;;;;0.60;0.60;;;1.80;99.90;;;;;;5094970;28;20570;-70
2022/11/24 10:44:02;;;;;;;0.65;0.65;;;1.80;99.90;;;;;;5113284;28;20199;-70
2022/11/24 10:46:28;;;;;;;0.80;0.80;;;1.80;99.90;;;;;;5113124;28;20563;-70
2022/11/24 10:49:00;;;;;;;0.73;0.70;;;1.80;99.90;;;;;;5113092;28;20675;-70
2022/11/24 10:51:45;;;;;;;0.68;0.68;;;1.70;99.90;;;;;;5113114;28;20191;-69
2022/11/24 10:54:29;;;;;;;0.65;0.65;;;1.70;99.90;;;;;;5094995;28;20194;-70
2022/11/24 10:56:55;;;;;;;0.70;0.70;;;1.70;99.90;;;;;;5112869;28;20614;-70
2022/11/24 10:59:23;;;;;;;0.70;0.70;;;1.80;99.90;;;;;;5113023;28;20195;-71
2022/11/24 11:01:49;;;;;;;0.60;0.60;;;1.80;99.90;;;;;;5094855;28;20291;-70
2022/11/24 11:04:19;;;;;;;0.70;0.70;;;1.80;99.90;;;;;;5113118;28;20544;-71
2022/11/24 11:06:45;;;;;;;0.63;0.63;;;1.80;99.90;;;;;;5112969;28;20720;-70
2022/11/24 11:09:20;;;;;;;0.80;0.80;;;1.90;99.90;;;;;;5112975;28;20228;-70
2022/11/24 11:11:47;;;;;;;0.80;0.80;;;1.90;99.90;;;;;;5094724;28;20531;-71
2022/11/24 11:14:29;;;;;;;0.93;0.93;;;1.90;99.90;;;;;;5116514;28;20665;-70
2022/11/24 11:16:56;;;;;;;0.47;0.47;;;1.80;99.90;;;;;;5117128;28;20676;-70
2022/11/24 11:19:36;;;;;;;0.60;0.60;;;1.90;99.90;;;;;;5098650;28;20198;-71
2022/11/24 11:22:10;;;;;;;0.70;0.70;;;1.90;99.90;;;;;;5117107;28;20187;-71
2022/11/24 11:24:44;;;;;;;0.77;0.77;;;1.90;99.90;;;;;;5116975;28;20190;-71
2022/11/24 11:27:21;;;;;;;0.55;0.55;;;1.90;99.90;;;;;;5116880;28;20666;-70
2022/11/24 11:29:48;;;;;;;0.50;0.50;;;1.90;99.90;;;;;;5116716;28;20214;-70
2022/11/24 11:32:20;;;;;;;0.50;0.50;;;1.90;99.90;;;;;;5116887;28;20188;-70
2022/11/24 11:34:47;;;;;;;0.55;0.55;;;1.90;99.90;;;;;;5116890;28;20654;-70
2022/11/24 11:37:14;;;;;;;0.55;0.55;;;1.90;99.90;;;;;;5116611;28;20199;-70
2022/11/24 11:39:42;;;;;;;0.63;0.63;;;1.90;99.90;;;;;;5098098;28;20199;-70
2022/11/24 11:42:33;;;;;;;0.70;0.70;;;1.90;99.90;;;;;;5116755;28;20677;-70
2022/11/24 11:45:32;;;;;;;0.60;0.60;;;1.90;99.90;;;;;;5116441;28;20596;-70
2022/11/24 11:47:57;;;;;;;0.50;0.50;;;1.80;99.90;;;;;;5116507;28;20210;-70
2022/11/24 11:50:42;;;;;;;0.68;0.68;;;1.90;99.90;;;;;;5098130;28;20187;-70
2022/11/24 11:53:32;;;;;;;0.90;0.90;;;1.90;99.90;;;;;;5097772;28;20206;-70
2022/11/24 11:56:29;;;;;;;0.65;0.65;;;1.90;99.90;;;;;;5116535;28;20214;-70
2022/11/24 11:59:12;;;;;;;0.60;0.60;;;1.90;99.90;;;;;;5106395;28;20214;-70
2022/11/24 12:01:58;;;;;;;0.60;0.60;;;1.80;99.90;;;;;;5097807;28;20662;-69
2022/11/24 12:04:36;;;;;;;0.60;0.60;;;1.90;99.90;;;;;;5116113;28;20188;-70
2022/11/24 12:07:44;;;;;;;0.55;0.55;;;1.80;99.90;;;;;;5116134;28;20241;-69
2022/11/24 12:10:12;;;;;;;0.60;0.60;;;1.70;99.90;;;;;;5097651;28;20231;-69
2022/11/24 12:13:23;;;;;;;0.80;0.80;;;1.80;99.90;;;;;;5101026;28;20647;-70
2022/11/24 12:15:52;;;;;;;0.70;0.70;;;1.80;99.90;;;;;;5064381;28;20258;-70
2022/11/24 12:18:42;;;;;;;0.80;0.80;;;1.80;99.90;;;;;;5095609;28;20192;-70
2022/11/24 12:21:20;;;;;;;0.60;0.60;;;1.80;99.90;;;;;;5077399;28;20235;-69
2022/11/24 12:24:07;;;;;;;0.65;0.65;;;1.80;99.90;;;;;;5077294;28;20577;-70
2022/11/24 12:26:51;;;;;;;0.60;0.60;;;1.80;99.90;;;;;;5112360;28;20234;-69
2022/11/24 12:30:02;;;;;;;0.70;0.70;;;1.80;99.90;;;;;;5115582;28;20196;-70
2022/11/24 12:32:32;;;;;;;0.70;0.70;;;1.80;99.90;;;;;;5013075;28;20261;-70
2022/11/24 12:35:06;;;;;;;0.60;0.60;;;1.80;99.90;;;;;;4996895;28;20588;-70
2022/11/24 12:37:31;;;;;;;0.60;0.60;;;1.80;99.90;;;;;;5008338;28;20258;-70
2022/11/24 12:40:10;;;;;;;0.70;0.70;;;1.80;99.90;;;;;;4993619;28;20207;-70
2022/11/24 12:42:38;;;;;;;0.60;0.60;;;1.90;99.90;;;;;;5023267;28;20220;-70
2022/11/24 12:45:15;;;;;;;0.70;0.70;;;1.90;99.90;;;;;;5032848;28;20230;-70
2022/11/24 12:48:04;;;;;;;0.60;0.60;;;1.90;99.90;;;;;;5032619;28;20220;-71
2022/11/24 12:50:36;;;;;;;1.98;1.77;;;1.80;99.90;;;;;;5013812;28;20213;-71
2022/11/24 12:53:12;;;;;;;0.70;0.70;;;1.80;99.90;;;;;;5012902;28;20191;-70
2022/11/24 12:55:40;;;;;;;0.82;0.82;;;1.80;99.90;;;;;;4996281;28;20289;-71
2022/11/24 12:58:49;;;;;;;0.60;0.60;;;1.80;99.90;;;;;;4996393;28;20206;-70
2022/11/24 13:01:20;;;;;;;0.50;0.50;;;1.90;99.90;;;;;;4961472;28;20285;-70
2022/11/24 13:04:04;;;;;;;0.60;0.60;;;1.90;99.90;;;;;;5076044;28;20574;-70
2022/11/24 13:06:49;;;;;;;0.52;0.52;;;1.80;99.90;;;;;;5094388;28;20200;-70
2022/11/24 13:09:15;;;;;;;0.70;0.70;;;1.80;99.90;;;;;;5094524;28;20266;-70
2022/11/24 13:11:49;;;;;;;0.60;0.60;;;1.80;99.90;;;;;;5094442;28;20612;-70